sensor_id;sensor_type;location;lat;lon;timestamp;temperature;humidity
37281;DHT22;23169;41.804;12.596;2023-02-19T00:01:59;12.40;1.00
37281;DHT22;23169;41.804;12.596;2023-02-19T00:04:26;12.40;1.00
37281;DHT22;23169;41.804;12.596;2023-02-19T00:06:54;12.40;1.00
37281;DHT22;23169;41.804;12.596;2023-02-19T00:09:22;12.40;1.00
37281;DHT22;23169;41.804;12.596;2023-02-19T00:11:49;12.40;1.00
37281;DHT22;23169;41.804;12.596;2023-02-19T00:14:19;12.40;1.00
37281;DHT22;23169;41.804;12.596;2023-02-19T00:16:47;12.40;1.00
37281;DHT22;23169;41.804;12.596;2023-02-19T00:19:17;12.40;1.00
37281;DHT22;23169;41.804;12.596;2023-02-19T00:21:45;12.40;1.00
37281;DHT22;23169;41.804;12.596;2023-02-19T00:24:13;12.40;1.00
37281;DHT22;23169;41.804;12.596;2023-02-19T00:26:42;12.30;1.00
37281;DHT22;23169;41.804;12.596;2023-02-19T00:29:19;12.30;1.00
37281;DHT22;23169;41.804;12.596;2023-02-19T00:31:47;12.30;1.00
37281;DHT22;23169;41.804;12.596;2023-02-19T00:34:14;12.30;1.00
37281;DHT22;23169;41.804;12.596;2023-02-19T00:36:42;12.40;5.30
37281;DHT22;23169;41.804;12.596;2023-02-19T00:39:12;12.30;1.00
37281;DHT22;23169;41.804;12.596;2023-02-19T00:41:41;12.30;1.00
37281;DHT22;23169;41.804;12.596;2023-02-19T00:44:10;12.20;1.00
37281;DHT22;23169;41.804;12.596;2023-02-19T00:46:41;12.20;1.00
37281;DHT22;23169;41.804;12.596;2023-02-19T00:49:20;12.20;1.00
37281;DHT22;23169;41.804;12.596;2023-02-19T00:51:48;12.20;1.00
37281;DHT22;23169;41.804;12.596;2023-02-19T00:54:16;12.10;1.00
37281;DHT22;23169;41.804;12.596;2023-02-19T00:56:44;12.10;1.00
37281;DHT22;23169;41.804;12.596;2023-02-19T00:59:11;12.20;1.00
37281;DHT22;23169;41.804;12.596;2023-02-19T01:01:38;12.20;1.00
37281;DHT22;23169;41.804;12.596;2023-02-19T01:04:07;12.20;1.00
37281;DHT22;23169;41.804;12.596;2023-02-19T01:06:36;12.30;1.00
37281;DHT22;23169;41.804;12.596;2023-02-19T01:09:05;12.30;1.00
37281;DHT22;23169;41.804;12.596;2023-02-19T01:11:35;12.30;1.00
37281;DHT22;23169;41.804;12.596;2023-02-19T01:14:03;12.20;1.00
37281;DHT22;23169;41.804;12.596;2023-02-19T01:16:33;12.20;1.00
37281;DHT22;23169;41.804;12.596;2023-02-19T01:19:01;11.80;11.70
37281;DHT22;23169;41.804;12.596;2023-02-19T01:21:30;12.10;1.00
37281;DHT22;23169;41.804;12.596;2023-02-19T01:23:58;12.20;1.00
37281;DHT22;23169;41.804;12.596;2023-02-19T01:26:29;12.10;1.00
37281;DHT22;23169;41.804;12.596;2023-02-19T01:28:59;12.10;1.00
37281;DHT22;23169;41.804;12.596;2023-02-19T01:31:30;12.20;31.00
37281;DHT22;23169;41.804;12.596;2023-02-19T01:34:01;12.10;1.00
37281;DHT22;23169;41.804;12.596;2023-02-19T01:36:32;12.10;1.00
37281;DHT22;23169;41.804;12.596;2023-02-19T01:39:02;12.00;1.00
37281;DHT22;23169;41.804;12.596;2023-02-19T01:41:35;12.00;1.00
37281;DHT22;23169;41.804;12.596;2023-02-19T01:46:39;12.00;1.00
37281;DHT22;23169;41.804;12.596;2023-02-19T01:49:12;11.90;1.00
37281;DHT22;23169;41.804;12.596;2023-02-19T01:51:51;11.90;1.00
37281;DHT22;23169;41.804;12.596;2023-02-19T01:54:24;11.90;1.00
37281;DHT22;23169;41.804;12.596;2023-02-19T01:56:54;11.80;1.00
37281;DHT22;23169;41.804;12.596;2023-02-19T01:59:24;11.80;1.00
37281;DHT22;23169;41.804;12.596;2023-02-19T02:01:53;11.70;1.00
37281;DHT22;23169;41.804;12.596;2023-02-19T02:04:21;11.70;1.00
37281;DHT22;23169;41.804;12.596;2023-02-19T02:06:52;11.90;42.10
37281;DHT22;23169;41.804;12.596;2023-02-19T02:09:26;11.50;1.00
37281;DHT22;23169;41.804;12.596;2023-02-19T02:12:13;11.30;1.00
37281;DHT22;23169;41.804;12.596;2023-02-19T02:14:44;11.20;1.00
37281;DHT22;23169;41.804;12.596;2023-02-19T02:17:29;10.80;45.50
37281;DHT22;23169;41.804;12.596;2023-02-19T02:20:25;11.10;1.00
37281;DHT22;23169;41.804;12.596;2023-02-19T02:28:59;10.90;2.80
37281;DHT22;23169;41.804;12.596;2023-02-19T02:31:37;10.80;5.40
37281;DHT22;23169;41.804;12.596;2023-02-19T02:34:15;10.70;7.50
37281;DHT22;23169;41.804;12.596;2023-02-19T02:36:53;10.40;67.10
37281;DHT22;23169;41.804;12.596;2023-02-19T02:39:26;10.30;75.00
37281;DHT22;23169;41.804;12.596;2023-02-19T02:41:58;10.40;71.40
37281;DHT22;23169;41.804;12.596;2023-02-19T02:44:46;10.60;7.30
37281;DHT22;23169;41.804;12.596;2023-02-19T02:47:46;10.80;88.50
37281;DHT22;23169;41.804;12.596;2023-02-19T02:50:19;10.40;45.40
37281;DHT22;23169;41.804;12.596;2023-02-19T02:52:55;10.50;7.20
37281;DHT22;23169;41.804;12.596;2023-02-19T02:55:48;10.50;8.50
37281;DHT22;23169;41.804;12.596;2023-02-19T02:58:22;10.50;8.10
37281;DHT22;23169;41.804;12.596;2023-02-19T03:00:55;10.50;8.50
37281;DHT22;23169;41.804;12.596;2023-02-19T03:03:44;10.40;9.60
37281;DHT22;23169;41.804;12.596;2023-02-19T03:06:16;10.40;10.40
37281;DHT22;23169;41.804;12.596;2023-02-19T03:09:11;10.40;8.20
37281;DHT22;23169;41.804;12.596;2023-02-19T03:11:44;10.20;69.30
37281;DHT22;23169;41.804;12.596;2023-02-19T03:14:44;9.50;75.00
37281;DHT22;23169;41.804;12.596;2023-02-19T03:17:37;10.20;19.80
37281;DHT22;23169;41.804;12.596;2023-02-19T03:20:27;9.70;89.90
37281;DHT22;23169;41.804;12.596;2023-02-19T03:22:57;10.10;29.80
37281;DHT22;23169;41.804;12.596;2023-02-19T03:25:31;10.00;39.40
37281;DHT22;23169;41.804;12.596;2023-02-19T03:28:23;10.10;99.90
37281;DHT22;23169;41.804;12.596;2023-02-19T03:31:17;10.50;99.90
37281;DHT22;23169;41.804;12.596;2023-02-19T03:33:52;10.20;60.00
37281;DHT22;23169;41.804;12.596;2023-02-19T03:36:22;10.20;75.80
37281;DHT22;23169;41.804;12.596;2023-02-19T03:39:05;10.30;99.90
37281;DHT22;23169;41.804;12.596;2023-02-19T03:44:52;10.30;75.10
37281;DHT22;23169;41.804;12.596;2023-02-19T03:47:31;10.20;80.10
37281;DHT22;23169;41.804;12.596;2023-02-19T03:53:02;10.10;90.60
37281;DHT22;23169;41.804;12.596;2023-02-19T03:58:55;10.50;99.90
37281;DHT22;23169;41.804;12.596;2023-02-19T04:04:26;9.70;99.90
37281;DHT22;23169;41.804;12.596;2023-02-19T04:06:58;10.20;99.90
37281;DHT22;23169;41.804;12.596;2023-02-19T04:09:36;10.10;99.90
37281;DHT22;23169;41.804;12.596;2023-02-19T04:12:08;10.20;99.90
37281;DHT22;23169;41.804;12.596;2023-02-19T04:15:00;10.20;99.90
37281;DHT22;23169;41.804;12.596;2023-02-19T04:17:36;10.50;99.90
37281;DHT22;23169;41.804;12.596;2023-02-19T04:20:10;10.50;99.90
37281;DHT22;23169;41.804;12.596;2023-02-19T04:22:41;10.70;99.90
37281;DHT22;23169;41.804;12.596;2023-02-19T04:25:09;10.70;96.50
37281;DHT22;23169;41.804;12.596;2023-02-19T04:27:38;10.80;94.90
37281;DHT22;23169;41.804;12.596;2023-02-19T04:30:09;10.90;92.60
37281;DHT22;23169;41.804;12.596;2023-02-19T04:32:38;11.00;99.90
37281;DHT22;23169;41.804;12.596;2023-02-19T04:35:07;10.80;99.90
37281;DHT22;23169;41.804;12.596;2023-02-19T04:37:36;11.10;83.90
37281;DHT22;23169;41.804;12.596;2023-02-19T04:40:04;11.20;78.50
37281;DHT22;23169;41.804;12.596;2023-02-19T04:42:33;11.30;75.60
37281;DHT22;23169;41.804;12.596;2023-02-19T04:45:02;11.30;99.90
37281;DHT22;23169;41.804;12.596;2023-02-19T04:47:31;11.20;73.00
37281;DHT22;23169;41.804;12.596;2023-02-19T04:49:59;11.30;99.90
37281;DHT22;23169;41.804;12.596;2023-02-19T04:52:28;11.10;73.80
37281;DHT22;23169;41.804;12.596;2023-02-19T04:54:56;11.00;99.90
37281;DHT22;23169;41.804;12.596;2023-02-19T04:57:24;11.10;73.80
37281;DHT22;23169;41.804;12.596;2023-02-19T04:59:53;11.70;99.90
37281;DHT22;23169;41.804;12.596;2023-02-19T05:02:22;11.60;99.90
37281;DHT22;23169;41.804;12.596;2023-02-19T05:04:50;11.40;67.30
37281;DHT22;23169;41.804;12.596;2023-02-19T05:07:18;11.40;66.50
37281;DHT22;23169;41.804;12.596;2023-02-19T05:09:46;11.50;99.90
37281;DHT22;23169;41.804;12.596;2023-02-19T05:12:14;11.50;65.00
37281;DHT22;23169;41.804;12.596;2023-02-19T05:14:43;11.50;65.70
37281;DHT22;23169;41.804;12.596;2023-02-19T05:17:11;11.50;63.20
37281;DHT22;23169;41.804;12.596;2023-02-19T05:19:40;11.50;64.00
37281;DHT22;23169;41.804;12.596;2023-02-19T05:22:09;11.60;64.70
37281;DHT22;23169;41.804;12.596;2023-02-19T05:24:38;11.60;63.80
37281;DHT22;23169;41.804;12.596;2023-02-19T05:27:06;12.00;98.70
37281;DHT22;23169;41.804;12.596;2023-02-19T05:29:34;11.60;59.40
37281;DHT22;23169;41.804;12.596;2023-02-19T05:32:02;11.60;58.90
37281;DHT22;23169;41.804;12.596;2023-02-19T05:34:31;11.60;56.00
37281;DHT22;23169;41.804;12.596;2023-02-19T05:37:01;11.60;53.30
37281;DHT22;23169;41.804;12.596;2023-02-19T05:39:30;11.60;50.60
37281;DHT22;23169;41.804;12.596;2023-02-19T05:41:58;11.60;51.10
37281;DHT22;23169;41.804;12.596;2023-02-19T05:44:26;11.60;50.50
37281;DHT22;23169;41.804;12.596;2023-02-19T05:46:55;11.70;48.70
37281;DHT22;23169;41.804;12.596;2023-02-19T05:49:23;11.80;94.20
37281;DHT22;23169;41.804;12.596;2023-02-19T05:51:51;11.70;45.80
37281;DHT22;23169;41.804;12.596;2023-02-19T05:54:19;11.70;43.60
37281;DHT22;23169;41.804;12.596;2023-02-19T05:56:48;11.70;41.50
37281;DHT22;23169;41.804;12.596;2023-02-19T05:59:19;11.80;43.20
37281;DHT22;23169;41.804;12.596;2023-02-19T06:01:49;11.70;45.80
37281;DHT22;23169;41.804;12.596;2023-02-19T06:04:19;11.70;46.10
37281;DHT22;23169;41.804;12.596;2023-02-19T06:06:48;11.60;48.10
37281;DHT22;23169;41.804;12.596;2023-02-19T06:09:16;11.60;53.90
37281;DHT22;23169;41.804;12.596;2023-02-19T06:11:44;11.50;50.90
37281;DHT22;23169;41.804;12.596;2023-02-19T06:14:13;11.40;50.50
37281;DHT22;23169;41.804;12.596;2023-02-19T06:16:42;11.30;50.40
37281;DHT22;23169;41.804;12.596;2023-02-19T06:19:10;11.30;54.60
37281;DHT22;23169;41.804;12.596;2023-02-19T06:21:38;11.30;53.30
37281;DHT22;23169;41.804;12.596;2023-02-19T06:24:07;11.70;98.30
37281;DHT22;23169;41.804;12.596;2023-02-19T06:26:37;11.20;90.90
37281;DHT22;23169;41.804;12.596;2023-02-19T06:29:05;11.60;96.80
37281;DHT22;23169;41.804;12.596;2023-02-19T06:31:34;11.60;98.60
37281;DHT22;23169;41.804;12.596;2023-02-19T06:34:04;11.50;54.50
37281;DHT22;23169;41.804;12.596;2023-02-19T06:36:34;11.50;54.50
37281;DHT22;23169;41.804;12.596;2023-02-19T06:39:03;12.50;99.90
37281;DHT22;23169;41.804;12.596;2023-02-19T06:41:32;11.60;54.30
37281;DHT22;23169;41.804;12.596;2023-02-19T06:44:00;11.10;90.90
37281;DHT22;23169;41.804;12.596;2023-02-19T06:46:30;11.60;49.70
37281;DHT22;23169;41.804;12.596;2023-02-19T06:48:58;11.40;99.90
37281;DHT22;23169;41.804;12.596;2023-02-19T06:51:26;11.80;91.10
37281;DHT22;23169;41.804;12.596;2023-02-19T06:53:56;11.60;44.70
37281;DHT22;23169;41.804;12.596;2023-02-19T06:56:36;11.70;43.70
37281;DHT22;23169;41.804;12.596;2023-02-19T06:59:10;11.70;93.70
37281;DHT22;23169;41.804;12.596;2023-02-19T07:01:39;11.80;42.70
37281;DHT22;23169;41.804;12.596;2023-02-19T07:04:08;11.80;41.20
37281;DHT22;23169;41.804;12.596;2023-02-19T07:06:37;11.80;39.30
37281;DHT22;23169;41.804;12.596;2023-02-19T07:09:23;11.80;38.00
37281;DHT22;23169;41.804;12.596;2023-02-19T07:11:52;11.80;37.10
37281;DHT22;23169;41.804;12.596;2023-02-19T07:14:20;11.80;37.40
37281;DHT22;23169;41.804;12.596;2023-02-19T07:16:48;11.90;39.00
37281;DHT22;23169;41.804;12.596;2023-02-19T07:19:17;11.90;36.10
37281;DHT22;23169;41.804;12.596;2023-02-19T07:21:45;12.00;33.80
37281;DHT22;23169;41.804;12.596;2023-02-19T07:24:13;12.00;32.10
37281;DHT22;23169;41.804;12.596;2023-02-19T07:26:42;12.10;30.60
37281;DHT22;23169;41.804;12.596;2023-02-19T07:29:10;12.10;29.60
37281;DHT22;23169;41.804;12.596;2023-02-19T07:31:38;12.20;28.80
37281;DHT22;23169;41.804;12.596;2023-02-19T07:34:06;12.30;28.00
37281;DHT22;23169;41.804;12.596;2023-02-19T07:36:36;12.30;26.40
37281;DHT22;23169;41.804;12.596;2023-02-19T07:39:05;12.40;25.40
37281;DHT22;23169;41.804;12.596;2023-02-19T07:41:34;12.40;23.90
37281;DHT22;23169;41.804;12.596;2023-02-19T07:44:02;12.50;22.80
37281;DHT22;23169;41.804;12.596;2023-02-19T07:46:31;12.60;21.90
37281;DHT22;23169;41.804;12.596;2023-02-19T07:48:59;12.60;20.80
37281;DHT22;23169;41.804;12.596;2023-02-19T07:51:28;12.70;91.50
37281;DHT22;23169;41.804;12.596;2023-02-19T07:53:57;12.80;18.90
37281;DHT22;23169;41.804;12.596;2023-02-19T07:56:25;12.80;16.80
37281;DHT22;23169;41.804;12.596;2023-02-19T07:58:55;12.80;16.40
37281;DHT22;23169;41.804;12.596;2023-02-19T08:01:23;13.00;16.10
37281;DHT22;23169;41.804;12.596;2023-02-19T08:04:12;13.00;15.30
37281;DHT22;23169;41.804;12.596;2023-02-19T08:06:41;13.00;15.80
37281;DHT22;23169;41.804;12.596;2023-02-19T08:09:10;13.10;14.40
37281;DHT22;23169;41.804;12.596;2023-02-19T08:11:38;13.20;13.80
37281;DHT22;23169;41.804;12.596;2023-02-19T08:14:26;13.20;13.60
37281;DHT22;23169;41.804;12.596;2023-02-19T08:16:54;13.20;11.20
37281;DHT22;23169;41.804;12.596;2023-02-19T08:19:23;13.10;9.20
37281;DHT22;23169;41.804;12.596;2023-02-19T08:21:53;13.10;9.00
37281;DHT22;23169;41.804;12.596;2023-02-19T08:24:21;13.20;9.30
37281;DHT22;23169;41.804;12.596;2023-02-19T08:26:50;11.60;8.90
37281;DHT22;23169;41.804;12.596;2023-02-19T08:29:18;13.30;9.30
37281;DHT22;23169;41.804;12.596;2023-02-19T08:31:47;13.40;8.40
37281;DHT22;23169;41.804;12.596;2023-02-19T08:34:15;13.50;8.30
37281;DHT22;23169;41.804;12.596;2023-02-19T08:36:44;13.60;7.30
37281;DHT22;23169;41.804;12.596;2023-02-19T08:39:12;13.70;6.30
37281;DHT22;23169;41.804;12.596;2023-02-19T08:41:40;13.90;6.80
37281;DHT22;23169;41.804;12.596;2023-02-19T08:44:09;13.90;5.90
37281;DHT22;23169;41.804;12.596;2023-02-19T08:46:38;14.20;14.50
37281;DHT22;23169;41.804;12.596;2023-02-19T08:49:06;14.10;3.40
37281;DHT22;23169;41.804;12.596;2023-02-19T08:51:34;14.30;3.10
37281;DHT22;23169;41.804;12.596;2023-02-19T08:54:03;14.40;2.00
37281;DHT22;23169;41.804;12.596;2023-02-19T08:56:32;14.50;1.00
37281;DHT22;23169;41.804;12.596;2023-02-19T08:59:01;14.60;1.00
37281;DHT22;23169;41.804;12.596;2023-02-19T09:01:29;14.70;1.00
37281;DHT22;23169;41.804;12.596;2023-02-19T09:03:57;14.70;1.00
37281;DHT22;23169;41.804;12.596;2023-02-19T09:06:26;14.60;1.00
37281;DHT22;23169;41.804;12.596;2023-02-19T09:08:55;14.40;4.50
37281;DHT22;23169;41.804;12.596;2023-02-19T09:11:23;14.20;1.00
37281;DHT22;23169;41.804;12.596;2023-02-19T09:13:54;14.20;1.00
37281;DHT22;23169;41.804;12.596;2023-02-19T09:16:22;14.40;1.00
37281;DHT22;23169;41.804;12.596;2023-02-19T09:18:50;14.60;1.00
37281;DHT22;23169;41.804;12.596;2023-02-19T09:21:18;14.80;1.00
37281;DHT22;23169;41.804;12.596;2023-02-19T09:23:46;14.90;1.00
37281;DHT22;23169;41.804;12.596;2023-02-19T09:26:15;15.00;1.00
37281;DHT22;23169;41.804;12.596;2023-02-19T09:28:44;15.10;1.00
37281;DHT22;23169;41.804;12.596;2023-02-19T09:31:14;15.00;1.00
37281;DHT22;23169;41.804;12.596;2023-02-19T09:33:43;15.10;1.00
37281;DHT22;23169;41.804;12.596;2023-02-19T09:36:13;15.30;1.00
37281;DHT22;23169;41.804;12.596;2023-02-19T09:38:42;15.40;1.00
37281;DHT22;23169;41.804;12.596;2023-02-19T09:41:37;15.50;1.00
37281;DHT22;23169;41.804;12.596;2023-02-19T09:44:09;15.40;1.00
37281;DHT22;23169;41.804;12.596;2023-02-19T09:46:46;15.60;1.00
37281;DHT22;23169;41.804;12.596;2023-02-19T09:49:28;15.80;1.00
37281;DHT22;23169;41.804;12.596;2023-02-19T09:52:41;15.90;1.00
37281;DHT22;23169;41.804;12.596;2023-02-19T09:55:41;16.10;1.00
37281;DHT22;23169;41.804;12.596;2023-02-19T09:58:34;16.10;1.00
37281;DHT22;23169;41.804;12.596;2023-02-19T10:01:04;16.20;1.00
37281;DHT22;23169;41.804;12.596;2023-02-19T10:03:38;16.00;1.00
37281;DHT22;23169;41.804;12.596;2023-02-19T10:06:20;16.00;1.00
37281;DHT22;23169;41.804;12.596;2023-02-19T10:08:59;16.10;1.00
37281;DHT22;23169;41.804;12.596;2023-02-19T10:11:32;16.00;1.00
37281;DHT22;23169;41.804;12.596;2023-02-19T10:14:07;16.10;1.00
37281;DHT22;23169;41.804;12.596;2023-02-19T10:16:42;16.20;1.00
37281;DHT22;23169;41.804;12.596;2023-02-19T10:19:13;16.10;1.00
37281;DHT22;23169;41.804;12.596;2023-02-19T10:21:42;16.40;1.00
37281;DHT22;23169;41.804;12.596;2023-02-19T10:24:26;16.70;1.00
37281;DHT22;23169;41.804;12.596;2023-02-19T10:26:55;16.50;1.00
37281;DHT22;23169;41.804;12.596;2023-02-19T10:29:23;16.20;1.00
37281;DHT22;23169;41.804;12.596;2023-02-19T10:32:14;16.40;1.00
37281;DHT22;23169;41.804;12.596;2023-02-19T10:34:46;16.10;1.00
37281;DHT22;23169;41.804;12.596;2023-02-19T10:37:18;16.40;1.00
37281;DHT22;23169;41.804;12.596;2023-02-19T10:39:48;16.70;1.00
37281;DHT22;23169;41.804;12.596;2023-02-19T10:42:21;17.00;1.00
37281;DHT22;23169;41.804;12.596;2023-02-19T10:44:54;16.80;1.00
37281;DHT22;23169;41.804;12.596;2023-02-19T10:47:26;16.70;1.00
37281;DHT22;23169;41.804;12.596;2023-02-19T10:49:57;16.00;1.00
37281;DHT22;23169;41.804;12.596;2023-02-19T10:52:27;17.00;1.00
37281;DHT22;23169;41.804;12.596;2023-02-19T10:57:57;16.40;1.00
37281;DHT22;23169;41.804;12.596;2023-02-19T11:00:29;16.60;1.00
37281;DHT22;23169;41.804;12.596;2023-02-19T11:03:20;16.70;1.00
37281;DHT22;23169;41.804;12.596;2023-02-19T11:05:56;16.90;1.00
37281;DHT22;23169;41.804;12.596;2023-02-19T11:08:26;16.90;1.00
37281;DHT22;23169;41.804;12.596;2023-02-19T11:10:55;16.80;1.00
37281;DHT22;23169;41.804;12.596;2023-02-19T11:13:31;16.70;1.00
37281;DHT22;23169;41.804;12.596;2023-02-19T11:16:06;16.50;1.00
37281;DHT22;23169;41.804;12.596;2023-02-19T11:18:35;16.40;1.00
37281;DHT22;23169;41.804;12.596;2023-02-19T11:21:05;16.40;1.00
37281;DHT22;23169;41.804;12.596;2023-02-19T11:23:44;16.50;1.00
37281;DHT22;23169;41.804;12.596;2023-02-19T11:26:19;16.60;1.00
37281;DHT22;23169;41.804;12.596;2023-02-19T11:28:55;16.70;1.00
37281;DHT22;23169;41.804;12.596;2023-02-19T11:31:32;16.80;1.00
37281;DHT22;23169;41.804;12.596;2023-02-19T11:36:53;16.90;1.00
37281;DHT22;23169;41.804;12.596;2023-02-19T11:39:33;16.70;1.00
37281;DHT22;23169;41.804;12.596;2023-02-19T11:42:29;16.70;1.00
37281;DHT22;23169;41.804;12.596;2023-02-19T11:45:28;16.90;1.00
37281;DHT22;23169;41.804;12.596;2023-02-19T11:48:36;16.50;1.00
37281;DHT22;23169;41.804;12.596;2023-02-19T11:57:00;16.30;1.00
37281;DHT22;23169;41.804;12.596;2023-02-19T11:59:43;16.10;1.00
37281;DHT22;23169;41.804;12.596;2023-02-19T12:05:23;15.60;1.00
37281;DHT22;23169;41.804;12.596;2023-02-19T12:16:58;15.40;1.00
37281;DHT22;23169;41.804;12.596;2023-02-19T12:19:49;15.40;1.00
37281;DHT22;23169;41.804;12.596;2023-02-19T12:25:22;15.40;1.00
37281;DHT22;23169;41.804;12.596;2023-02-19T12:44:52;16.00;1.00
37281;DHT22;23169;41.804;12.596;2023-02-19T12:47:38;16.10;1.00
37281;DHT22;23169;41.804;12.596;2023-02-19T12:50:13;16.20;1.00
37281;DHT22;23169;41.804;12.596;2023-02-19T12:52:45;16.10;1.00
37281;DHT22;23169;41.804;12.596;2023-02-19T12:57:51;16.10;1.00
37281;DHT22;23169;41.804;12.596;2023-02-19T13:00:36;16.20;1.00
37281;DHT22;23169;41.804;12.596;2023-02-19T13:06:05;17.90;1.00
37281;DHT22;23169;41.804;12.596;2023-02-19T13:08:45;18.80;1.00
37281;DHT22;23169;41.804;12.596;2023-02-19T13:11:19;19.30;1.00
37281;DHT22;23169;41.804;12.596;2023-02-19T13:13:54;18.70;1.00
37281;DHT22;23169;41.804;12.596;2023-02-19T13:16:25;18.20;1.00
37281;DHT22;23169;41.804;12.596;2023-02-19T13:19:01;17.60;1.00
37281;DHT22;23169;41.804;12.596;2023-02-19T13:21:32;17.00;1.00
37281;DHT22;23169;41.804;12.596;2023-02-19T13:37:43;16.10;1.00
37281;DHT22;23169;41.804;12.596;2023-02-19T13:42:57;16.20;1.00
37281;DHT22;23169;41.804;12.596;2023-02-19T13:45:44;16.40;1.00
37281;DHT22;23169;41.804;12.596;2023-02-19T13:48:33;16.50;1.00
37281;DHT22;23169;41.804;12.596;2023-02-19T14:04:24;17.30;1.00
37281;DHT22;23169;41.804;12.596;2023-02-19T14:14:50;16.90;1.00
37281;DHT22;23169;41.804;12.596;2023-02-19T14:17:43;16.40;1.00
37281;DHT22;23169;41.804;12.596;2023-02-19T14:25:41;15.80;1.00
37281;DHT22;23169;41.804;12.596;2023-02-19T14:28:29;15.70;1.00
37281;DHT22;23169;41.804;12.596;2023-02-19T14:33:37;15.40;1.00
37281;DHT22;23169;41.804;12.596;2023-02-19T14:42:05;15.40;1.00
37281;DHT22;23169;41.804;12.596;2023-02-19T14:44:54;15.40;1.00
37281;DHT22;23169;41.804;12.596;2023-02-19T14:47:26;15.40;1.00
37281;DHT22;23169;41.804;12.596;2023-02-19T14:50:01;15.40;1.00
37281;DHT22;23169;41.804;12.596;2023-02-19T14:52:40;15.40;1.00
37281;DHT22;23169;41.804;12.596;2023-02-19T14:57:54;15.40;1.00
37281;DHT22;23169;41.804;12.596;2023-02-19T15:00:35;15.30;1.00
37281;DHT22;23169;41.804;12.596;2023-02-19T15:03:05;15.30;1.00
37281;DHT22;23169;41.804;12.596;2023-02-19T15:05:35;15.30;1.00
37281;DHT22;23169;41.804;12.596;2023-02-19T15:08:11;15.30;1.00
37281;DHT22;23169;41.804;12.596;2023-02-19T15:10:44;15.30;1.00
37281;DHT22;23169;41.804;12.596;2023-02-19T15:13:18;15.20;1.00
37281;DHT22;23169;41.804;12.596;2023-02-19T15:15:49;15.10;1.00
37281;DHT22;23169;41.804;12.596;2023-02-19T15:18:21;15.00;1.00
37281;DHT22;23169;41.804;12.596;2023-02-19T15:20:57;15.00;1.00
37281;DHT22;23169;41.804;12.596;2023-02-19T15:23:27;14.90;1.00
37281;DHT22;23169;41.804;12.596;2023-02-19T15:25:57;14.80;1.00
37281;DHT22;23169;41.804;12.596;2023-02-19T15:28:28;14.70;1.00
37281;DHT22;23169;41.804;12.596;2023-02-19T15:33:27;14.60;1.00
37281;DHT22;23169;41.804;12.596;2023-02-19T15:35:58;14.40;1.00
37281;DHT22;23169;41.804;12.596;2023-02-19T15:38:28;14.00;3.30
37281;DHT22;23169;41.804;12.596;2023-02-19T15:40:56;14.40;1.00
37281;DHT22;23169;41.804;12.596;2023-02-19T15:46:11;14.40;1.00
37281;DHT22;23169;41.804;12.596;2023-02-19T15:49:07;14.30;1.00
37281;DHT22;23169;41.804;12.596;2023-02-19T15:51:44;14.30;1.00
37281;DHT22;23169;41.804;12.596;2023-02-19T15:54:18;14.20;1.00
37281;DHT22;23169;41.804;12.596;2023-02-19T15:56:49;14.20;1.00
37281;DHT22;23169;41.804;12.596;2023-02-19T16:01:51;14.30;1.00
37281;DHT22;23169;41.804;12.596;2023-02-19T16:04:20;14.40;1.00
37281;DHT22;23169;41.804;12.596;2023-02-19T16:06:59;14.40;1.00
37281;DHT22;23169;41.804;12.596;2023-02-19T16:09:36;14.60;1.00
37281;DHT22;23169;41.804;12.596;2023-02-19T16:12:25;15.00;1.00
37281;DHT22;23169;41.804;12.596;2023-02-19T16:14:54;15.40;1.00
37281;DHT22;23169;41.804;12.596;2023-02-19T16:17:23;15.60;1.00
37281;DHT22;23169;41.804;12.596;2023-02-19T16:19:59;15.60;1.00
37281;DHT22;23169;41.804;12.596;2023-02-19T16:22:32;15.60;1.00
37281;DHT22;23169;41.804;12.596;2023-02-19T16:25:04;15.40;1.00
37281;DHT22;23169;41.804;12.596;2023-02-19T16:27:36;15.10;1.00
37281;DHT22;23169;41.804;12.596;2023-02-19T16:46:50;13.90;1.00
37281;DHT22;23169;41.804;12.596;2023-02-19T16:49:20;13.80;1.00
37281;DHT22;23169;41.804;12.596;2023-02-19T16:51:50;13.00;25.90
37281;DHT22;23169;41.804;12.596;2023-02-19T16:54:18;13.60;1.00
37281;DHT22;23169;41.804;12.596;2023-02-19T16:56:47;13.50;1.00
37281;DHT22;23169;41.804;12.596;2023-02-19T16:59:16;13.50;1.00
37281;DHT22;23169;41.804;12.596;2023-02-19T17:01:44;13.50;1.00
37281;DHT22;23169;41.804;12.596;2023-02-19T17:04:13;13.40;1.00
37281;DHT22;23169;41.804;12.596;2023-02-19T17:06:45;13.30;1.80
37281;DHT22;23169;41.804;12.596;2023-02-19T17:09:14;12.80;39.20
37281;DHT22;23169;41.804;12.596;2023-02-19T17:11:46;13.30;4.30
37281;DHT22;23169;41.804;12.596;2023-02-19T17:14:14;13.20;5.20
37281;DHT22;23169;41.804;12.596;2023-02-19T17:16:43;13.10;7.50
37281;DHT22;23169;41.804;12.596;2023-02-19T17:19:15;13.10;8.90
37281;DHT22;23169;41.804;12.596;2023-02-19T17:21:44;13.10;11.00
37281;DHT22;23169;41.804;12.596;2023-02-19T17:24:13;13.00;11.60
37281;DHT22;23169;41.804;12.596;2023-02-19T17:26:42;13.00;12.70
37281;DHT22;23169;41.804;12.596;2023-02-19T17:29:13;13.00;13.80
37281;DHT22;23169;41.804;12.596;2023-02-19T17:31:41;13.00;15.30
37281;DHT22;23169;41.804;12.596;2023-02-19T17:34:11;12.90;16.30
37281;DHT22;23169;41.804;12.596;2023-02-19T17:36:40;12.90;17.50
37281;DHT22;23169;41.804;12.596;2023-02-19T17:39:13;12.90;19.50
37281;DHT22;23169;41.804;12.596;2023-02-19T17:41:44;12.90;18.00
37281;DHT22;23169;41.804;12.596;2023-02-19T17:44:13;12.90;19.70
37281;DHT22;23169;41.804;12.596;2023-02-19T17:46:45;12.90;20.90
37281;DHT22;23169;41.804;12.596;2023-02-19T17:49:15;12.80;23.40
37281;DHT22;23169;41.804;12.596;2023-02-19T17:51:43;12.80;25.40
37281;DHT22;23169;41.804;12.596;2023-02-19T17:54:12;12.70;27.60
37281;DHT22;23169;41.804;12.596;2023-02-19T17:56:41;12.70;28.40
37281;DHT22;23169;41.804;12.596;2023-02-19T17:59:10;12.70;30.20
37281;DHT22;23169;41.804;12.596;2023-02-19T18:01:39;12.70;31.00
37281;DHT22;23169;41.804;12.596;2023-02-19T18:04:07;12.70;33.00
37281;DHT22;23169;41.804;12.596;2023-02-19T18:06:36;12.60;34.40
37281;DHT22;23169;41.804;12.596;2023-02-19T18:09:20;12.60;35.20
37281;DHT22;23169;41.804;12.596;2023-02-19T18:11:50;12.60;35.20
37281;DHT22;23169;41.804;12.596;2023-02-19T18:14:18;12.60;34.90
37281;DHT22;23169;41.804;12.596;2023-02-19T18:16:49;12.70;34.10
37281;DHT22;23169;41.804;12.596;2023-02-19T18:19:18;12.70;33.60
37281;DHT22;23169;41.804;12.596;2023-02-19T18:21:47;12.70;33.00
37281;DHT22;23169;41.804;12.596;2023-02-19T18:24:15;12.80;32.00
37281;DHT22;23169;41.804;12.596;2023-02-19T18:26:43;12.80;31.30
37281;DHT22;23169;41.804;12.596;2023-02-19T18:29:12;12.90;30.60